Flight Sim Network - MPTO Airport Info

    MPTO (Tocumen International Airport)  Login to use Map Selector
   

  RUNWAY INFORMATION    |    Airport Elevation : 135ft    |    LAT : 9.0713596344  /  LON : -79.3834991455
Runway Number 03R / 21L Runway Width 148' Runway Length 10006'
Lighted Runway Yes Runway StatusOpen Runway Surface Concrete
Runway Number 03L / 21R Runway Width 200' Runway Length 8800'
Lighted Runway Yes Runway StatusOpen Runway Surface Asphalt
  CLOSE ALTERNATE AIRPORTS
ICAODistanceAirport NameLongest RWRW SurfaceMAP
MP0E11NMCalzada Larga3907FTAsphalt
MPMG12NMMarcos A. Gelabert International Airport5944FTAsphalt
MPHO16NMHoward AFB8542FTConcrete
MPEJ33NMEnrique Adolfo Jimenez Airport6001FTConcrete
MP0F42NMChame3937FTAsphalt
MP0H58NMPunta Cocos3999FTAsphalt
MPRH61NMCap Scarlet Martinez Airport4380FTAsphalt
MP0B67NMPenonome3350FTAsphalt
PX0689NMChitre4790FTAsphalt
MP0C90NMAugusto Vergara3474FTAsphalt
  AIRPORT WEATHER
78°F | 26°C
Temperature
94%
Humidity
29" | 0mb
Pressure
5sm
Visibility
VFR
Flight Rules
SCT @ 1600ft
Initial Clouds
-RA
Conditions
Wind Info
7/23/24 17:00Z
Updated

MPTO 231700Z 14003KT 9000 -RA SCT016 BKN070 26/25 Q1012 NOSIG
  AIRPORT FREQUENCIES
NameFrequency
CLEARANCE129.800
GROUND121.900
TOWER118.100
APPROACH119.700
DEPARTURE121.200
INAT (RWY 3R)110.700

Powered by Virtual Airlines Manager